sensor_id;sensor_type;location;lat;lon;timestamp;P1;durP1;ratioP1;P2;durP2;ratioP2
11588;SDS011;5850;51.360;12.362;2023-11-19T00:00:34;3.77;;;3.37;;
11588;SDS011;5850;51.360;12.362;2023-11-19T00:03:03;3.77;;;3.43;;
11588;SDS011;5850;51.360;12.362;2023-11-19T00:05:32;4.57;;;3.73;;
11588;SDS011;5850;51.360;12.362;2023-11-19T00:08:00;3.67;;;3.37;;
11588;SDS011;5850;51.360;12.362;2023-11-19T00:10:29;4.03;;;3.30;;
11588;SDS011;5850;51.360;12.362;2023-11-19T00:12:57;3.13;;;2.83;;
11588;SDS011;5850;51.360;12.362;2023-11-19T00:15:25;4.53;;;3.63;;
11588;SDS011;5850;51.360;12.362;2023-11-19T00:17:53;3.40;;;3.10;;
11588;SDS011;5850;51.360;12.362;2023-11-19T00:20:25;2.97;;;2.77;;
11588;SDS011;5850;51.360;12.362;2023-11-19T00:22:53;4.17;;;3.60;;
11588;SDS011;5850;51.360;12.362;2023-11-19T00:25:21;3.77;;;3.10;;
11588;SDS011;5850;51.360;12.362;2023-11-19T00:27:50;4.27;;;2.97;;
11588;SDS011;5850;51.360;12.362;2023-11-19T00:30:20;3.20;;;2.80;;
11588;SDS011;5850;51.360;12.362;2023-11-19T00:32:48;3.83;;;3.07;;
11588;SDS011;5850;51.360;12.362;2023-11-19T00:35:16;4.23;;;3.77;;
11588;SDS011;5850;51.360;12.362;2023-11-19T00:37:44;3.40;;;3.10;;
11588;SDS011;5850;51.360;12.362;2023-11-19T00:40:13;3.40;;;3.10;;
11588;SDS011;5850;51.360;12.362;2023-11-19T00:42:45;3.33;;;2.70;;
11588;SDS011;5850;51.360;12.362;2023-11-19T00:45:14;3.00;;;2.80;;
11588;SDS011;5850;51.360;12.362;2023-11-19T00:47:42;2.93;;;2.60;;
11588;SDS011;5850;51.360;12.362;2023-11-19T00:50:10;2.80;;;2.60;;
11588;SDS011;5850;51.360;12.362;2023-11-19T00:52:39;2.70;;;2.50;;
11588;SDS011;5850;51.360;12.362;2023-11-19T00:55:08;2.00;;;1.90;;
11588;SDS011;5850;51.360;12.362;2023-11-19T00:57:36;2.53;;;2.33;;
11588;SDS011;5850;51.360;12.362;2023-11-19T01:00:06;2.90;;;2.20;;
11588;SDS011;5850;51.360;12.362;2023-11-19T01:02:45;2.33;;;2.17;;
11588;SDS011;5850;51.360;12.362;2023-11-19T01:05:16;2.23;;;2.03;;
11588;SDS011;5850;51.360;12.362;2023-11-19T01:07:48;1.70;;;1.60;;
11588;SDS011;5850;51.360;12.362;2023-11-19T01:10:16;2.40;;;2.20;;
11588;SDS011;5850;51.360;12.362;2023-11-19T01:12:45;2.30;;;2.10;;
11588;SDS011;5850;51.360;12.362;2023-11-19T01:15:13;2.20;;;2.00;;
11588;SDS011;5850;51.360;12.362;2023-11-19T01:17:41;1.80;;;1.70;;
11588;SDS011;5850;51.360;12.362;2023-11-19T01:20:12;1.80;;;1.70;;
11588;SDS011;5850;51.360;12.362;2023-11-19T01:22:40;1.60;;;1.50;;
11588;SDS011;5850;51.360;12.362;2023-11-19T01:25:09;1.90;;;1.80;;
11588;SDS011;5850;51.360;12.362;2023-11-19T01:27:37;1.80;;;1.70;;
11588;SDS011;5850;51.360;12.362;2023-11-19T01:30:06;1.50;;;1.40;;
11588;SDS011;5850;51.360;12.362;2023-11-19T01:32:35;1.70;;;1.57;;
11588;SDS011;5850;51.360;12.362;2023-11-19T01:35:04;1.50;;;1.40;;
11588;SDS011;5850;51.360;12.362;2023-11-19T01:37:32;1.70;;;1.60;;
11588;SDS011;5850;51.360;12.362;2023-11-19T01:40:00;2.87;;;1.60;;
11588;SDS011;5850;51.360;12.362;2023-11-19T01:42:35;1.60;;;1.50;;
11588;SDS011;5850;51.360;12.362;2023-11-19T01:45:07;1.70;;;1.60;;
11588;SDS011;5850;51.360;12.362;2023-11-19T01:47:37;1.87;;;1.77;;
11588;SDS011;5850;51.360;12.362;2023-11-19T01:50:06;1.83;;;1.73;;
11588;SDS011;5850;51.360;12.362;2023-11-19T01:52:34;2.13;;;1.93;;
11588;SDS011;5850;51.360;12.362;2023-11-19T01:55:04;2.10;;;1.90;;
11588;SDS011;5850;51.360;12.362;2023-11-19T01:57:33;1.80;;;1.70;;
11588;SDS011;5850;51.360;12.362;2023-11-19T02:00:03;1.70;;;1.60;;
11588;SDS011;5850;51.360;12.362;2023-11-19T02:02:32;1.63;;;1.53;;
11588;SDS011;5850;51.360;12.362;2023-11-19T02:05:01;2.93;;;1.47;;
11588;SDS011;5850;51.360;12.362;2023-11-19T02:07:29;1.70;;;1.60;;
11588;SDS011;5850;51.360;12.362;2023-11-19T02:09:57;2.07;;;1.87;;
11588;SDS011;5850;51.360;12.362;2023-11-19T02:12:28;1.70;;;1.60;;
11588;SDS011;5850;51.360;12.362;2023-11-19T02:14:57;1.90;;;1.80;;
11588;SDS011;5850;51.360;12.362;2023-11-19T02:17:29;1.90;;;1.80;;
11588;SDS011;5850;51.360;12.362;2023-11-19T02:19:58;1.80;;;1.70;;
11588;SDS011;5850;51.360;12.362;2023-11-19T02:22:26;1.50;;;1.43;;
11588;SDS011;5850;51.360;12.362;2023-11-19T02:24:56;1.97;;;1.73;;
11588;SDS011;5850;51.360;12.362;2023-11-19T02:30:18;2.00;;;1.77;;
11588;SDS011;5850;51.360;12.362;2023-11-19T02:32:46;2.17;;;1.90;;
11588;SDS011;5850;51.360;12.362;2023-11-19T02:35:14;1.77;;;1.67;;
11588;SDS011;5850;51.360;12.362;2023-11-19T02:37:43;2.00;;;1.87;;
11588;SDS011;5850;51.360;12.362;2023-11-19T02:40:11;2.03;;;1.93;;
11588;SDS011;5850;51.360;12.362;2023-11-19T02:45:12;1.93;;;1.83;;
11588;SDS011;5850;51.360;12.362;2023-11-19T02:47:41;2.87;;;2.23;;
11588;SDS011;5850;51.360;12.362;2023-11-19T02:50:10;1.83;;;1.67;;
11588;SDS011;5850;51.360;12.362;2023-11-19T02:52:41;2.13;;;1.93;;
11588;SDS011;5850;51.360;12.362;2023-11-19T02:55:09;2.70;;;2.17;;
11588;SDS011;5850;51.360;12.362;2023-11-19T02:57:39;2.00;;;1.90;;
11588;SDS011;5850;51.360;12.362;2023-11-19T03:00:13;2.10;;;1.90;;
11588;SDS011;5850;51.360;12.362;2023-11-19T03:02:42;2.27;;;2.07;;
11588;SDS011;5850;51.360;12.362;2023-11-19T03:05:12;1.97;;;1.83;;
11588;SDS011;5850;51.360;12.362;2023-11-19T03:07:43;2.13;;;2.00;;
11588;SDS011;5850;51.360;12.362;2023-11-19T03:10:11;2.20;;;2.00;;
11588;SDS011;5850;51.360;12.362;2023-11-19T03:12:41;2.10;;;1.90;;
11588;SDS011;5850;51.360;12.362;2023-11-19T03:15:12;2.23;;;2.07;;
11588;SDS011;5850;51.360;12.362;2023-11-19T03:17:41;2.10;;;1.80;;
11588;SDS011;5850;51.360;12.362;2023-11-19T03:20:10;2.17;;;1.97;;
11588;SDS011;5850;51.360;12.362;2023-11-19T03:22:41;2.07;;;1.97;;
11588;SDS011;5850;51.360;12.362;2023-11-19T03:25:10;2.10;;;1.90;;
11588;SDS011;5850;51.360;12.362;2023-11-19T03:27:38;2.07;;;1.90;;
11588;SDS011;5850;51.360;12.362;2023-11-19T03:30:08;2.60;;;1.87;;
11588;SDS011;5850;51.360;12.362;2023-11-19T03:32:36;2.10;;;1.53;;
11588;SDS011;5850;51.360;12.362;2023-11-19T03:35:05;1.90;;;1.80;;
11588;SDS011;5850;51.360;12.362;2023-11-19T03:37:35;2.07;;;1.80;;
11588;SDS011;5850;51.360;12.362;2023-11-19T03:40:03;1.77;;;1.67;;
11588;SDS011;5850;51.360;12.362;2023-11-19T03:42:32;2.00;;;1.90;;
11588;SDS011;5850;51.360;12.362;2023-11-19T03:45:00;1.60;;;1.50;;
11588;SDS011;5850;51.360;12.362;2023-11-19T03:50:17;1.70;;;1.60;;
11588;SDS011;5850;51.360;12.362;2023-11-19T03:52:46;1.53;;;1.43;;
11588;SDS011;5850;51.360;12.362;2023-11-19T03:55:15;2.40;;;1.77;;
11588;SDS011;5850;51.360;12.362;2023-11-19T03:57:43;3.17;;;1.80;;
11588;SDS011;5850;51.360;12.362;2023-11-19T04:00:11;1.83;;;1.73;;
11588;SDS011;5850;51.360;12.362;2023-11-19T04:02:40;1.50;;;1.40;;
11588;SDS011;5850;51.360;12.362;2023-11-19T04:05:07;1.80;;;1.70;;
11588;SDS011;5850;51.360;12.362;2023-11-19T04:07:36;2.17;;;1.50;;
11588;SDS011;5850;51.360;12.362;2023-11-19T04:10:04;2.03;;;1.63;;
11588;SDS011;5850;51.360;12.362;2023-11-19T04:12:33;3.70;;;1.37;;
11588;SDS011;5850;51.360;12.362;2023-11-19T04:15:01;2.00;;;1.63;;
11588;SDS011;5850;51.360;12.362;2023-11-19T04:17:30;1.60;;;1.50;;
11588;SDS011;5850;51.360;12.362;2023-11-19T04:19:58;1.97;;;1.57;;
11588;SDS011;5850;51.360;12.362;2023-11-19T04:22:26;1.67;;;1.57;;
11588;SDS011;5850;51.360;12.362;2023-11-19T04:24:54;3.17;;;1.33;;
11588;SDS011;5850;51.360;12.362;2023-11-19T04:27:22;1.50;;;1.40;;
11588;SDS011;5850;51.360;12.362;2023-11-19T04:29:51;1.90;;;1.30;;
11588;SDS011;5850;51.360;12.362;2023-11-19T04:32:22;1.50;;;1.40;;
11588;SDS011;5850;51.360;12.362;2023-11-19T04:34:51;1.13;;;1.13;;
11588;SDS011;5850;51.360;12.362;2023-11-19T04:37:19;3.37;;;1.53;;
11588;SDS011;5850;51.360;12.362;2023-11-19T04:39:47;2.73;;;1.37;;
11588;SDS011;5850;51.360;12.362;2023-11-19T04:42:16;1.47;;;1.37;;
11588;SDS011;5850;51.360;12.362;2023-11-19T04:44:44;2.77;;;1.40;;
11588;SDS011;5850;51.360;12.362;2023-11-19T04:47:12;1.43;;;1.27;;
11588;SDS011;5850;51.360;12.362;2023-11-19T04:49:41;1.73;;;1.10;;
11588;SDS011;5850;51.360;12.362;2023-11-19T04:52:09;1.30;;;1.20;;
11588;SDS011;5850;51.360;12.362;2023-11-19T04:54:41;1.13;;;1.03;;
11588;SDS011;5850;51.360;12.362;2023-11-19T04:57:10;1.20;;;1.20;;
11588;SDS011;5850;51.360;12.362;2023-11-19T04:59:38;1.10;;;0.97;;
11588;SDS011;5850;51.360;12.362;2023-11-19T05:02:07;1.30;;;1.10;;
11588;SDS011;5850;51.360;12.362;2023-11-19T05:04:36;1.40;;;1.30;;
11588;SDS011;5850;51.360;12.362;2023-11-19T05:07:04;1.27;;;0.93;;
11588;SDS011;5850;51.360;12.362;2023-11-19T05:09:33;2.53;;;1.10;;
11588;SDS011;5850;51.360;12.362;2023-11-19T05:12:01;1.03;;;0.93;;
11588;SDS011;5850;51.360;12.362;2023-11-19T05:14:29;2.83;;;1.00;;
11588;SDS011;5850;51.360;12.362;2023-11-19T05:16:57;2.77;;;1.10;;
11588;SDS011;5850;51.360;12.362;2023-11-19T05:19:25;1.17;;;1.10;;
11588;SDS011;5850;51.360;12.362;2023-11-19T05:21:54;0.90;;;0.90;;
11588;SDS011;5850;51.360;12.362;2023-11-19T05:24:23;0.90;;;0.90;;
11588;SDS011;5850;51.360;12.362;2023-11-19T05:26:51;0.90;;;0.90;;
11588;SDS011;5850;51.360;12.362;2023-11-19T05:29:19;0.83;;;0.83;;
11588;SDS011;5850;51.360;12.362;2023-11-19T05:31:47;1.97;;;1.00;;
11588;SDS011;5850;51.360;12.362;2023-11-19T05:34:15;0.93;;;0.83;;
11588;SDS011;5850;51.360;12.362;2023-11-19T05:36:45;0.80;;;0.80;;
11588;SDS011;5850;51.360;12.362;2023-11-19T05:39:13;1.27;;;1.17;;
11588;SDS011;5850;51.360;12.362;2023-11-19T05:41:41;1.13;;;1.03;;
11588;SDS011;5850;51.360;12.362;2023-11-19T05:44:12;1.00;;;0.90;;
11588;SDS011;5850;51.360;12.362;2023-11-19T05:46:40;0.97;;;0.90;;
11588;SDS011;5850;51.360;12.362;2023-11-19T05:49:09;1.07;;;1.00;;
11588;SDS011;5850;51.360;12.362;2023-11-19T05:51:38;1.13;;;1.10;;
11588;SDS011;5850;51.360;12.362;2023-11-19T05:54:09;1.33;;;1.00;;
11588;SDS011;5850;51.360;12.362;2023-11-19T05:56:37;0.97;;;0.97;;
11588;SDS011;5850;51.360;12.362;2023-11-19T05:59:05;1.13;;;0.90;;
11588;SDS011;5850;51.360;12.362;2023-11-19T06:01:41;1.00;;;0.93;;
11588;SDS011;5850;51.360;12.362;2023-11-19T06:04:09;1.00;;;1.00;;
11588;SDS011;5850;51.360;12.362;2023-11-19T06:06:38;0.83;;;0.80;;
11588;SDS011;5850;51.360;12.362;2023-11-19T06:09:06;0.77;;;0.77;;
11588;SDS011;5850;51.360;12.362;2023-11-19T06:11:39;0.93;;;0.83;;
11588;SDS011;5850;51.360;12.362;2023-11-19T06:14:07;0.90;;;0.70;;
11588;SDS011;5850;51.360;12.362;2023-11-19T06:16:36;1.87;;;0.80;;
11588;SDS011;5850;51.360;12.362;2023-11-19T06:19:06;1.10;;;1.00;;
11588;SDS011;5850;51.360;12.362;2023-11-19T06:21:36;1.07;;;1.00;;
11588;SDS011;5850;51.360;12.362;2023-11-19T06:24:04;0.73;;;0.73;;
11588;SDS011;5850;51.360;12.362;2023-11-19T06:26:32;1.07;;;1.00;;
11588;SDS011;5850;51.360;12.362;2023-11-19T06:29:00;1.27;;;0.80;;
11588;SDS011;5850;51.360;12.362;2023-11-19T06:31:28;0.80;;;0.80;;
11588;SDS011;5850;51.360;12.362;2023-11-19T06:33:57;0.90;;;0.90;;
11588;SDS011;5850;51.360;12.362;2023-11-19T06:36:25;1.23;;;1.00;;
11588;SDS011;5850;51.360;12.362;2023-11-19T06:38:54;2.00;;;0.80;;
11588;SDS011;5850;51.360;12.362;2023-11-19T06:41:22;1.43;;;1.03;;
11588;SDS011;5850;51.360;12.362;2023-11-19T06:43:50;0.90;;;0.90;;
11588;SDS011;5850;51.360;12.362;2023-11-19T06:46:18;0.90;;;0.90;;
11588;SDS011;5850;51.360;12.362;2023-11-19T06:48:46;1.17;;;1.00;;
11588;SDS011;5850;51.360;12.362;2023-11-19T06:51:15;0.93;;;0.93;;
11588;SDS011;5850;51.360;12.362;2023-11-19T06:53:43;1.20;;;1.10;;
11588;SDS011;5850;51.360;12.362;2023-11-19T06:56:21;1.20;;;1.00;;
11588;SDS011;5850;51.360;12.362;2023-11-19T06:58:50;2.43;;;1.70;;
11588;SDS011;5850;51.360;12.362;2023-11-19T07:01:18;1.30;;;1.20;;
11588;SDS011;5850;51.360;12.362;2023-11-19T07:03:47;2.07;;;1.30;;
11588;SDS011;5850;51.360;12.362;2023-11-19T07:06:16;0.90;;;0.90;;
11588;SDS011;5850;51.360;12.362;2023-11-19T07:08:44;1.40;;;1.30;;
11588;SDS011;5850;51.360;12.362;2023-11-19T07:11:13;0.90;;;0.90;;
11588;SDS011;5850;51.360;12.362;2023-11-19T07:13:43;1.00;;;1.00;;
11588;SDS011;5850;51.360;12.362;2023-11-19T07:16:13;0.90;;;0.90;;
11588;SDS011;5850;51.360;12.362;2023-11-19T07:18:42;1.53;;;1.00;;
11588;SDS011;5850;51.360;12.362;2023-11-19T07:21:10;0.90;;;0.80;;
11588;SDS011;5850;51.360;12.362;2023-11-19T07:23:39;0.80;;;0.80;;
11588;SDS011;5850;51.360;12.362;2023-11-19T07:26:07;1.33;;;1.00;;
11588;SDS011;5850;51.360;12.362;2023-11-19T07:28:37;2.13;;;1.00;;
11588;SDS011;5850;51.360;12.362;2023-11-19T07:31:06;1.10;;;1.00;;
11588;SDS011;5850;51.360;12.362;2023-11-19T07:33:35;1.10;;;1.10;;
11588;SDS011;5850;51.360;12.362;2023-11-19T07:36:05;1.43;;;1.33;;
11588;SDS011;5850;51.360;12.362;2023-11-19T07:38:33;2.10;;;1.00;;
11588;SDS011;5850;51.360;12.362;2023-11-19T07:41:04;1.67;;;1.10;;
11588;SDS011;5850;51.360;12.362;2023-11-19T07:43:33;1.10;;;1.07;;
11588;SDS011;5850;51.360;12.362;2023-11-19T07:46:01;1.13;;;1.13;;
11588;SDS011;5850;51.360;12.362;2023-11-19T07:48:30;1.67;;;1.40;;
11588;SDS011;5850;51.360;12.362;2023-11-19T07:51:00;2.40;;;1.13;;
11588;SDS011;5850;51.360;12.362;2023-11-19T07:53:28;0.83;;;0.83;;
11588;SDS011;5850;51.360;12.362;2023-11-19T07:55:56;2.20;;;1.00;;
11588;SDS011;5850;51.360;12.362;2023-11-19T07:58:25;2.10;;;1.53;;
11588;SDS011;5850;51.360;12.362;2023-11-19T08:00:54;0.90;;;0.90;;
11588;SDS011;5850;51.360;12.362;2023-11-19T08:03:22;1.67;;;1.00;;
11588;SDS011;5850;51.360;12.362;2023-11-19T08:05:50;0.93;;;0.90;;
11588;SDS011;5850;51.360;12.362;2023-11-19T08:08:18;0.87;;;0.83;;
11588;SDS011;5850;51.360;12.362;2023-11-19T08:10:47;1.13;;;1.07;;
11588;SDS011;5850;51.360;12.362;2023-11-19T08:13:17;2.47;;;0.90;;
11588;SDS011;5850;51.360;12.362;2023-11-19T08:15:47;3.40;;;1.93;;
11588;SDS011;5850;51.360;12.362;2023-11-19T08:18:15;1.90;;;1.30;;
11588;SDS011;5850;51.360;12.362;2023-11-19T08:20:44;1.27;;;1.17;;
11588;SDS011;5850;51.360;12.362;2023-11-19T08:23:15;1.40;;;1.20;;
11588;SDS011;5850;51.360;12.362;2023-11-19T08:25:43;1.13;;;0.90;;
11588;SDS011;5850;51.360;12.362;2023-11-19T08:28:11;1.57;;;0.97;;
11588;SDS011;5850;51.360;12.362;2023-11-19T08:30:39;1.33;;;1.10;;
11588;SDS011;5850;51.360;12.362;2023-11-19T08:33:07;3.00;;;1.20;;
11588;SDS011;5850;51.360;12.362;2023-11-19T08:35:36;1.20;;;1.10;;
11588;SDS011;5850;51.360;12.362;2023-11-19T08:38:04;1.20;;;1.10;;
11588;SDS011;5850;51.360;12.362;2023-11-19T08:40:33;1.37;;;1.27;;
11588;SDS011;5850;51.360;12.362;2023-11-19T08:43:01;1.30;;;1.20;;
11588;SDS011;5850;51.360;12.362;2023-11-19T08:45:29;1.77;;;1.20;;
11588;SDS011;5850;51.360;12.362;2023-11-19T08:47:58;1.93;;;1.10;;
11588;SDS011;5850;51.360;12.362;2023-11-19T08:50:27;1.57;;;1.37;;
11588;SDS011;5850;51.360;12.362;2023-11-19T08:52:55;3.63;;;1.23;;
11588;SDS011;5850;51.360;12.362;2023-11-19T08:55:23;2.83;;;1.60;;
11588;SDS011;5850;51.360;12.362;2023-11-19T08:57:52;2.60;;;1.30;;
11588;SDS011;5850;51.360;12.362;2023-11-19T09:00:20;1.57;;;1.23;;
11588;SDS011;5850;51.360;12.362;2023-11-19T09:02:48;2.17;;;1.20;;
11588;SDS011;5850;51.360;12.362;2023-11-19T09:05:17;3.23;;;1.30;;
11588;SDS011;5850;51.360;12.362;2023-11-19T09:07:45;1.47;;;1.20;;
11588;SDS011;5850;51.360;12.362;2023-11-19T09:10:14;1.23;;;1.13;;
11588;SDS011;5850;51.360;12.362;2023-11-19T09:12:42;1.43;;;1.33;;
11588;SDS011;5850;51.360;12.362;2023-11-19T09:15:11;2.07;;;1.40;;
11588;SDS011;5850;51.360;12.362;2023-11-19T09:17:39;1.07;;;1.07;;
11588;SDS011;5850;51.360;12.362;2023-11-19T09:20:07;1.30;;;1.20;;
11588;SDS011;5850;51.360;12.362;2023-11-19T09:22:38;1.00;;;1.00;;
11588;SDS011;5850;51.360;12.362;2023-11-19T09:25:06;1.40;;;1.30;;
11588;SDS011;5850;51.360;12.362;2023-11-19T09:27:35;1.50;;;1.40;;
11588;SDS011;5850;51.360;12.362;2023-11-19T09:30:04;1.50;;;1.40;;
11588;SDS011;5850;51.360;12.362;2023-11-19T09:32:32;1.77;;;1.67;;
11588;SDS011;5850;51.360;12.362;2023-11-19T09:35:00;1.63;;;1.30;;
11588;SDS011;5850;51.360;12.362;2023-11-19T09:37:28;2.50;;;1.53;;
11588;SDS011;5850;51.360;12.362;2023-11-19T09:39:56;1.57;;;1.20;;
11588;SDS011;5850;51.360;12.362;2023-11-19T09:42:24;2.27;;;1.13;;
11588;SDS011;5850;51.360;12.362;2023-11-19T09:44:53;2.03;;;1.10;;
11588;SDS011;5850;51.360;12.362;2023-11-19T09:47:26;2.60;;;1.30;;
11588;SDS011;5850;51.360;12.362;2023-11-19T09:49:56;2.27;;;1.30;;
11588;SDS011;5850;51.360;12.362;2023-11-19T09:52:24;1.73;;;1.20;;
11588;SDS011;5850;51.360;12.362;2023-11-19T09:54:53;4.07;;;1.43;;
11588;SDS011;5850;51.360;12.362;2023-11-19T09:57:21;3.00;;;1.40;;
11588;SDS011;5850;51.360;12.362;2023-11-19T09:59:52;2.20;;;1.37;;
11588;SDS011;5850;51.360;12.362;2023-11-19T10:02:22;2.40;;;1.80;;
11588;SDS011;5850;51.360;12.362;2023-11-19T10:04:51;4.43;;;1.43;;
11588;SDS011;5850;51.360;12.362;2023-11-19T10:07:20;5.40;;;1.67;;
11588;SDS011;5850;51.360;12.362;2023-11-19T10:09:52;3.10;;;1.70;;
11588;SDS011;5850;51.360;12.362;2023-11-19T10:12:20;1.80;;;1.50;;
11588;SDS011;5850;51.360;12.362;2023-11-19T10:14:49;2.27;;;2.07;;
11588;SDS011;5850;51.360;12.362;2023-11-19T10:17:18;4.13;;;2.33;;
11588;SDS011;5850;51.360;12.362;2023-11-19T10:19:46;4.43;;;2.07;;
11588;SDS011;5850;51.360;12.362;2023-11-19T10:22:14;2.90;;;2.00;;
11588;SDS011;5850;51.360;12.362;2023-11-19T10:24:44;3.83;;;2.17;;
11588;SDS011;5850;51.360;12.362;2023-11-19T10:27:23;1.97;;;1.80;;
11588;SDS011;5850;51.360;12.362;2023-11-19T10:29:52;2.73;;;1.70;;
11588;SDS011;5850;51.360;12.362;2023-11-19T10:32:20;5.10;;;2.93;;
11588;SDS011;5850;51.360;12.362;2023-11-19T10:35:03;3.90;;;3.03;;
11588;SDS011;5850;51.360;12.362;2023-11-19T10:37:33;4.60;;;2.57;;
11588;SDS011;5850;51.360;12.362;2023-11-19T10:40:04;3.70;;;2.57;;
11588;SDS011;5850;51.360;12.362;2023-11-19T10:42:36;2.43;;;2.20;;
11588;SDS011;5850;51.360;12.362;2023-11-19T10:45:04;2.27;;;1.97;;
11588;SDS011;5850;51.360;12.362;2023-11-19T10:47:33;2.97;;;2.60;;
11588;SDS011;5850;51.360;12.362;2023-11-19T10:50:05;2.53;;;2.13;;
11588;SDS011;5850;51.360;12.362;2023-11-19T10:52:35;4.27;;;2.60;;
11588;SDS011;5850;51.360;12.362;2023-11-19T10:55:05;3.50;;;2.10;;
11588;SDS011;5850;51.360;12.362;2023-11-19T10:57:42;4.23;;;1.83;;
11588;SDS011;5850;51.360;12.362;2023-11-19T11:00:14;2.83;;;1.93;;
11588;SDS011;5850;51.360;12.362;2023-11-19T11:02:47;3.13;;;2.10;;
11588;SDS011;5850;51.360;12.362;2023-11-19T11:05:21;3.63;;;1.60;;
11588;SDS011;5850;51.360;12.362;2023-11-19T11:07:51;2.63;;;1.80;;
11588;SDS011;5850;51.360;12.362;2023-11-19T11:10:23;4.17;;;1.53;;
11588;SDS011;5850;51.360;12.362;2023-11-19T11:12:53;3.17;;;1.60;;
11588;SDS011;5850;51.360;12.362;2023-11-19T11:15:27;3.90;;;1.70;;
11588;SDS011;5850;51.360;12.362;2023-11-19T11:17:59;4.37;;;1.70;;
11588;SDS011;5850;51.360;12.362;2023-11-19T11:20:32;7.60;;;1.90;;
11588;SDS011;5850;51.360;12.362;2023-11-19T11:25:34;3.37;;;1.70;;
11588;SDS011;5850;51.360;12.362;2023-11-19T11:37:30;4.17;;;1.70;;
11588;SDS011;5850;51.360;12.362;2023-11-19T11:40:02;2.83;;;1.50;;
11588;SDS011;5850;51.360;12.362;2023-11-19T11:42:36;5.13;;;1.60;;
11588;SDS011;5850;51.360;12.362;2023-11-19T11:45:06;5.20;;;1.60;;
11588;SDS011;5850;51.360;12.362;2023-11-19T11:51:19;5.03;;;2.10;;
11588;SDS011;5850;51.360;12.362;2023-11-19T11:54:10;6.50;;;2.83;;
11588;SDS011;5850;51.360;12.362;2023-11-19T11:56:38;4.10;;;2.20;;
11588;SDS011;5850;51.360;12.362;2023-11-19T11:59:19;4.00;;;2.13;;
11588;SDS011;5850;51.360;12.362;2023-11-19T12:04:52;11.07;;;2.83;;
11588;SDS011;5850;51.360;12.362;2023-11-19T12:07:22;5.07;;;2.30;;
11588;SDS011;5850;51.360;12.362;2023-11-19T12:09:52;9.20;;;2.17;;
11588;SDS011;5850;51.360;12.362;2023-11-19T12:12:33;6.03;;;2.37;;
11588;SDS011;5850;51.360;12.362;2023-11-19T12:15:10;6.43;;;2.30;;
11588;SDS011;5850;51.360;12.362;2023-11-19T12:17:41;10.20;;;2.47;;
11588;SDS011;5850;51.360;12.362;2023-11-19T12:20:16;5.07;;;2.20;;
11588;SDS011;5850;51.360;12.362;2023-11-19T12:22:51;7.73;;;2.07;;
11588;SDS011;5850;51.360;12.362;2023-11-19T12:25:20;7.53;;;2.70;;
11588;SDS011;5850;51.360;12.362;2023-11-19T12:27:50;6.40;;;2.20;;
11588;SDS011;5850;51.360;12.362;2023-11-19T12:30:25;6.40;;;2.60;;
11588;SDS011;5850;51.360;12.362;2023-11-19T12:32:55;4.63;;;2.10;;
11588;SDS011;5850;51.360;12.362;2023-11-19T12:38:24;12.37;;;4.40;;
11588;SDS011;5850;51.360;12.362;2023-11-19T12:41:02;13.60;;;4.40;;
11588;SDS011;5850;51.360;12.362;2023-11-19T12:43:31;8.17;;;2.63;;
11588;SDS011;5850;51.360;12.362;2023-11-19T12:46:17;11.20;;;2.97;;
11588;SDS011;5850;51.360;12.362;2023-11-19T12:48:50;9.03;;;2.77;;
11588;SDS011;5850;51.360;12.362;2023-11-19T12:51:20;7.87;;;3.23;;
11588;SDS011;5850;51.360;12.362;2023-11-19T12:53:51;9.93;;;2.90;;
11588;SDS011;5850;51.360;12.362;2023-11-19T12:56:21;9.07;;;2.77;;
11588;SDS011;5850;51.360;12.362;2023-11-19T12:58:50;10.93;;;2.50;;
11588;SDS011;5850;51.360;12.362;2023-11-19T13:01:18;11.67;;;2.80;;
11588;SDS011;5850;51.360;12.362;2023-11-19T13:03:47;7.03;;;2.50;;
11588;SDS011;5850;51.360;12.362;2023-11-19T13:06:18;6.70;;;2.50;;
11588;SDS011;5850;51.360;12.362;2023-11-19T13:08:48;10.30;;;2.60;;
11588;SDS011;5850;51.360;12.362;2023-11-19T13:11:32;12.77;;;2.37;;
11588;SDS011;5850;51.360;12.362;2023-11-19T13:14:05;9.97;;;2.57;;
11588;SDS011;5850;51.360;12.362;2023-11-19T13:16:36;6.57;;;2.43;;
11588;SDS011;5850;51.360;12.362;2023-11-19T13:19:05;8.03;;;2.33;;
11588;SDS011;5850;51.360;12.362;2023-11-19T13:21:33;10.80;;;3.03;;
11588;SDS011;5850;51.360;12.362;2023-11-19T13:24:01;8.53;;;2.73;;
11588;SDS011;5850;51.360;12.362;2023-11-19T13:26:30;7.03;;;2.80;;
11588;SDS011;5850;51.360;12.362;2023-11-19T13:28:58;5.07;;;2.30;;
11588;SDS011;5850;51.360;12.362;2023-11-19T13:31:26;12.33;;;2.63;;
11588;SDS011;5850;51.360;12.362;2023-11-19T13:33:55;7.23;;;2.43;;
11588;SDS011;5850;51.360;12.362;2023-11-19T13:36:24;10.10;;;3.10;;
11588;SDS011;5850;51.360;12.362;2023-11-19T13:38:53;12.33;;;2.87;;
11588;SDS011;5850;51.360;12.362;2023-11-19T13:41:26;11.93;;;2.97;;
11588;SDS011;5850;51.360;12.362;2023-11-19T13:43:54;10.50;;;2.60;;
11588;SDS011;5850;51.360;12.362;2023-11-19T13:46:22;8.43;;;2.53;;
11588;SDS011;5850;51.360;12.362;2023-11-19T13:48:50;11.40;;;3.37;;
11588;SDS011;5850;51.360;12.362;2023-11-19T13:51:19;10.57;;;3.00;;
11588;SDS011;5850;51.360;12.362;2023-11-19T13:53:47;9.17;;;3.03;;
11588;SDS011;5850;51.360;12.362;2023-11-19T13:56:17;10.50;;;3.47;;
11588;SDS011;5850;51.360;12.362;2023-11-19T13:58:45;10.13;;;2.90;;
11588;SDS011;5850;51.360;12.362;2023-11-19T14:01:13;11.40;;;3.90;;
11588;SDS011;5850;51.360;12.362;2023-11-19T14:03:41;12.97;;;3.97;;
11588;SDS011;5850;51.360;12.362;2023-11-19T14:06:10;12.30;;;3.00;;
11588;SDS011;5850;51.360;12.362;2023-11-19T14:08:39;10.50;;;2.70;;
11588;SDS011;5850;51.360;12.362;2023-11-19T14:11:07;10.97;;;2.70;;
11588;SDS011;5850;51.360;12.362;2023-11-19T14:13:35;10.87;;;3.20;;
11588;SDS011;5850;51.360;12.362;2023-11-19T14:16:03;7.27;;;2.47;;
11588;SDS011;5850;51.360;12.362;2023-11-19T14:18:33;5.93;;;2.17;;
11588;SDS011;5850;51.360;12.362;2023-11-19T14:21:02;12.37;;;3.50;;
11588;SDS011;5850;51.360;12.362;2023-11-19T14:23:31;10.83;;;2.80;;
11588;SDS011;5850;51.360;12.362;2023-11-19T14:25:59;10.10;;;3.40;;
11588;SDS011;5850;51.360;12.362;2023-11-19T14:28:28;11.40;;;3.03;;
11588;SDS011;5850;51.360;12.362;2023-11-19T14:30:57;8.40;;;2.50;;
11588;SDS011;5850;51.360;12.362;2023-11-19T14:33:26;11.27;;;2.97;;
11588;SDS011;5850;51.360;12.362;2023-11-19T14:35:54;11.50;;;2.67;;
11588;SDS011;5850;51.360;12.362;2023-11-19T14:38:22;8.83;;;2.83;;
11588;SDS011;5850;51.360;12.362;2023-11-19T14:40:50;14.87;;;2.83;;
11588;SDS011;5850;51.360;12.362;2023-11-19T14:43:18;13.40;;;2.70;;
11588;SDS011;5850;51.360;12.362;2023-11-19T14:45:47;9.77;;;2.57;;
11588;SDS011;5850;51.360;12.362;2023-11-19T14:48:16;19.03;;;3.43;;
11588;SDS011;5850;51.360;12.362;2023-11-19T14:50:45;8.27;;;2.87;;
11588;SDS011;5850;51.360;12.362;2023-11-19T14:53:13;10.37;;;2.80;;
11588;SDS011;5850;51.360;12.362;2023-11-19T14:55:42;11.57;;;3.50;;
11588;SDS011;5850;51.360;12.362;2023-11-19T14:58:10;10.07;;;3.07;;
11588;SDS011;5850;51.360;12.362;2023-11-19T15:00:42;10.67;;;3.07;;
11588;SDS011;5850;51.360;12.362;2023-11-19T15:03:13;6.63;;;2.80;;
11588;SDS011;5850;51.360;12.362;2023-11-19T15:05:43;8.67;;;3.13;;
11588;SDS011;5850;51.360;12.362;2023-11-19T15:08:12;11.53;;;3.03;;
11588;SDS011;5850;51.360;12.362;2023-11-19T15:10:42;8.73;;;2.60;;
11588;SDS011;5850;51.360;12.362;2023-11-19T15:13:11;9.47;;;3.10;;
11588;SDS011;5850;51.360;12.362;2023-11-19T15:15:39;9.87;;;3.20;;
11588;SDS011;5850;51.360;12.362;2023-11-19T15:18:08;12.43;;;2.93;;
11588;SDS011;5850;51.360;12.362;2023-11-19T15:20:36;10.47;;;3.40;;
11588;SDS011;5850;51.360;12.362;2023-11-19T15:23:05;10.33;;;2.90;;
11588;SDS011;5850;51.360;12.362;2023-11-19T15:25:35;8.83;;;3.53;;
11588;SDS011;5850;51.360;12.362;2023-11-19T15:28:04;12.80;;;4.10;;